createdAt,value
2023-04-18T00:00:30.150Z,460.00
2023-04-18T00:01:30.186Z,457.00
2023-04-18T00:02:30.321Z,456.00
2023-04-18T00:03:30.650Z,455.00
2023-04-18T00:04:30.512Z,458.00
2023-04-18T00:05:30.437Z,459.00
2023-04-18T00:06:30.475Z,456.00
2023-04-18T00:07:30.588Z,455.00
2023-04-18T00:08:30.593Z,456.00
2023-04-18T00:09:30.680Z,457.00
2023-04-18T00:10:30.732Z,455.00
2023-04-18T00:11:30.772Z,458.00
2023-04-18T00:12:30.879Z,457.00
2023-04-18T00:13:30.898Z,458.00
2023-04-18T00:14:30.966Z,457.00
2023-04-18T00:15:31.010Z,457.00
2023-04-18T00:16:31.102Z,459.00
2023-04-18T00:17:31.167Z,461.00
2023-04-18T00:18:31.215Z,463.00
2023-04-18T00:19:31.258Z,462.00
2023-04-18T00:20:31.315Z,463.00
2023-04-18T00:21:31.329Z,463.00
2023-04-18T00:22:31.374Z,464.00
2023-04-18T00:23:31.405Z,462.00
2023-04-18T00:24:31.478Z,461.00
2023-04-18T00:25:31.560Z,462.00
2023-04-18T00:26:31.579Z,464.00
2023-04-18T00:27:31.643Z,467.00
2023-04-18T00:28:31.744Z,468.00
2023-04-18T00:29:31.770Z,468.00
2023-04-18T00:30:31.858Z,467.00
2023-04-18T00:31:32.009Z,466.00
2023-04-18T00:32:32.050Z,465.00
2023-04-18T00:33:32.023Z,463.00
2023-04-18T00:34:32.132Z,464.00
2023-04-18T00:35:32.168Z,464.00
2023-04-18T00:36:32.239Z,463.00
2023-04-18T00:37:32.248Z,464.00
2023-04-18T00:38:32.284Z,462.00
2023-04-18T00:39:32.374Z,463.00
2023-04-18T00:40:32.436Z,460.00
2023-04-18T00:41:32.467Z,462.00
2023-04-18T00:42:32.521Z,462.00
2023-04-18T00:43:32.585Z,465.00
2023-04-18T00:44:32.657Z,463.00
2023-04-18T00:45:32.717Z,461.00
2023-04-18T00:46:32.902Z,462.00
2023-04-18T00:47:32.908Z,462.00
2023-04-18T00:48:32.904Z,460.00
2023-04-18T00:49:32.974Z,461.00
2023-04-18T00:50:33.017Z,464.00
2023-04-18T00:51:33.060Z,462.00
2023-04-18T00:52:33.156Z,461.00
2023-04-18T00:53:33.198Z,462.00
2023-04-18T00:54:33.261Z,462.00
2023-04-18T00:55:33.281Z,461.00
2023-04-18T00:56:33.370Z,462.00
2023-04-18T00:57:33.438Z,463.00
2023-04-18T00:58:33.489Z,463.00
2023-04-18T00:59:33.555Z,461.00
2023-04-18T01:00:33.591Z,463.00
2023-04-18T01:01:33.713Z,463.00
2023-04-18T01:02:33.808Z,462.00
2023-04-18T01:03:34.077Z,461.00
2023-04-18T01:04:33.954Z,461.00
2023-04-18T01:05:33.878Z,461.00
2023-04-18T01:06:33.977Z,460.00
2023-04-18T01:07:34.011Z,459.00
2023-04-18T01:08:34.093Z,458.00
2023-04-18T01:09:34.159Z,457.00
2023-04-18T01:10:34.219Z,460.00
2023-04-18T01:11:34.308Z,461.00
2023-04-18T01:12:34.317Z,460.00
2023-04-18T01:13:34.358Z,462.00
2023-04-18T01:14:34.446Z,463.00
2023-04-18T01:15:34.546Z,464.00
2023-04-18T01:16:34.564Z,465.00
2023-04-18T01:17:34.723Z,465.00
2023-04-18T01:18:34.706Z,462.00
2023-04-18T01:19:34.759Z,463.00
2023-04-18T01:20:34.794Z,462.00
2023-04-18T01:21:34.832Z,464.00
2023-04-18T01:22:34.882Z,465.00
2023-04-18T01:23:34.921Z,465.00
2023-04-18T01:24:34.973Z,462.00
2023-04-18T01:25:35.017Z,463.00
2023-04-18T01:26:35.050Z,463.00
2023-04-18T01:27:35.146Z,465.00
2023-04-18T01:28:35.200Z,464.00
2023-04-18T01:29:36.295Z,466.00
2023-04-18T01:30:35.424Z,467.00
2023-04-18T01:31:35.416Z,465.00
2023-04-18T01:32:35.498Z,462.00
2023-04-18T01:33:35.540Z,463.00
2023-04-18T01:34:35.579Z,463.00
2023-04-18T01:35:35.669Z,464.00
2023-04-18T01:36:35.703Z,468.00
2023-04-18T01:37:35.775Z,468.00
2023-04-18T01:38:35.870Z,466.00
2023-04-18T01:39:35.924Z,466.00
2023-04-18T01:40:36.013Z,467.00
2023-04-18T01:41:36.078Z,467.00
2023-04-18T01:42:36.140Z,469.00
2023-04-18T01:43:36.180Z,469.00
2023-04-18T01:44:36.275Z,471.00
2023-04-18T01:45:36.294Z,470.00
2023-04-18T01:46:36.379Z,468.00
2023-04-18T01:47:36.436Z,467.00
2023-04-18T01:48:36.484Z,464.00
2023-04-18T01:49:36.517Z,464.00
2023-04-18T01:50:36.562Z,463.00
2023-04-18T01:51:36.629Z,463.00
2023-04-18T01:52:36.677Z,464.00
2023-04-18T01:53:36.756Z,466.00
2023-04-18T01:54:36.826Z,465.00
2023-04-18T01:55:36.890Z,464.00
2023-04-18T01:56:36.986Z,464.00
2023-04-18T01:57:37.016Z,462.00
2023-04-18T01:58:37.125Z,461.00
2023-04-18T01:59:37.163Z,460.00
2023-04-18T02:00:37.234Z,458.00
2023-04-18T02:01:37.322Z,456.00
2023-04-18T02:02:37.528Z,458.00
2023-04-18T02:03:37.627Z,458.00
2023-04-18T02:04:37.508Z,460.00
2023-04-18T02:05:37.629Z,460.00
2023-04-18T02:06:37.669Z,457.00
2023-04-18T02:07:37.695Z,457.00
2023-04-18T02:08:37.740Z,459.00
2023-04-18T02:09:37.831Z,459.00
2023-04-18T02:10:37.896Z,457.00
2023-04-18T02:11:37.941Z,458.00
2023-04-18T02:12:37.986Z,457.00
2023-04-18T02:13:38.052Z,455.00
2023-04-18T02:14:38.122Z,454.00
2023-04-18T02:15:38.205Z,452.00
2023-04-18T02:16:38.310Z,452.00
2023-04-18T02:17:38.382Z,451.00
2023-04-18T02:18:38.424Z,452.00
2023-04-18T02:19:38.502Z,454.00
2023-04-18T02:20:38.552Z,453.00
2023-04-18T02:21:38.595Z,453.00
2023-04-18T02:22:38.664Z,453.00
2023-04-18T02:23:38.719Z,457.00
2023-04-18T02:24:38.816Z,455.00
2023-04-18T02:25:38.865Z,454.00
2023-04-18T02:26:38.925Z,452.00
2023-04-18T02:27:38.996Z,454.00
2023-04-18T02:28:39.159Z,451.00
2023-04-18T02:29:39.108Z,452.00
2023-04-18T02:30:39.179Z,454.00
2023-04-18T02:31:39.242Z,455.00
2023-04-18T02:32:39.354Z,457.00
2023-04-18T02:33:39.346Z,453.00
2023-04-18T02:34:39.424Z,454.00
2023-04-18T02:35:39.491Z,457.00
2023-04-18T02:36:39.514Z,456.00
2023-04-18T02:37:39.611Z,457.00
2023-04-18T02:38:39.672Z,457.00
2023-04-18T02:39:39.741Z,457.00
2023-04-18T02:40:39.814Z,455.00
2023-04-18T02:41:39.855Z,455.00
2023-04-18T02:42:39.930Z,455.00
2023-04-18T02:43:40.007Z,454.00
2023-04-18T02:44:40.066Z,456.00
2023-04-18T02:45:40.188Z,456.00
2023-04-18T02:46:40.205Z,454.00
2023-04-18T02:47:51.121Z,453.00
2023-04-18T02:48:41.275Z,456.00
2023-04-18T02:49:40.304Z,457.00
2023-04-18T02:50:40.253Z,456.00
2023-04-18T02:51:40.225Z,455.00
2023-04-18T02:52:40.273Z,456.00
2023-04-18T02:53:40.260Z,455.00
2023-04-18T02:54:40.234Z,456.00
2023-04-18T02:55:40.260Z,458.00
2023-04-18T02:56:40.264Z,457.00
2023-04-18T02:57:40.252Z,457.00
2023-04-18T02:58:40.282Z,455.00
2023-04-18T02:59:40.379Z,455.00
2023-04-18T03:00:40.418Z,454.00
2023-04-18T03:01:40.544Z,455.00
2023-04-18T03:02:40.650Z,457.00
2023-04-18T03:03:40.592Z,455.00
2023-04-18T03:04:40.651Z,452.00
2023-04-18T03:05:40.709Z,453.00
2023-04-18T03:06:40.773Z,453.00
2023-04-18T03:07:40.825Z,455.00
2023-04-18T03:08:40.847Z,456.00
2023-04-18T03:09:40.937Z,452.00
2023-04-18T03:10:41.002Z,453.00
2023-04-18T03:11:41.130Z,454.00
2023-04-18T03:12:41.080Z,457.00
2023-04-18T03:13:41.152Z,457.00
2023-04-18T03:14:41.208Z,459.00
2023-04-18T03:15:41.309Z,460.00
2023-04-18T03:16:41.319Z,461.00
2023-04-18T03:17:41.463Z,461.00
2023-04-18T03:18:41.434Z,460.00
2023-04-18T03:19:41.478Z,460.00
2023-04-18T03:20:41.492Z,460.00
2023-04-18T03:21:41.584Z,462.00
2023-04-18T03:22:41.625Z,465.00
2023-04-18T03:23:41.695Z,463.00
2023-04-18T03:24:41.801Z,462.00
2023-04-18T03:25:41.762Z,464.00
2023-04-18T03:26:41.793Z,463.00
2023-04-18T03:27:41.851Z,464.00
2023-04-18T03:28:41.866Z,464.00
2023-04-18T03:29:41.933Z,463.00
2023-04-18T03:30:41.990Z,461.00
2023-04-18T03:31:42.171Z,462.00
2023-04-18T03:32:42.332Z,462.00
2023-04-18T03:33:42.115Z,463.00
2023-04-18T03:34:42.144Z,461.00
2023-04-18T03:35:42.201Z,461.00
2023-04-18T03:36:42.268Z,458.00
2023-04-18T03:37:42.272Z,459.00
2023-04-18T03:38:42.332Z,459.00
2023-04-18T03:39:42.373Z,460.00
2023-04-18T03:40:42.414Z,461.00
2023-04-18T03:41:42.483Z,459.00
2023-04-18T03:42:42.517Z,458.00
2023-04-18T03:43:42.568Z,458.00
2023-04-18T03:44:42.598Z,461.00
2023-04-18T03:45:42.646Z,461.00
2023-04-18T03:46:42.757Z,462.00
2023-04-18T03:47:42.801Z,463.00
2023-04-18T03:48:42.751Z,463.00
2023-04-18T03:49:42.802Z,461.00
2023-04-18T03:50:42.818Z,463.00
2023-04-18T03:51:42.864Z,462.00
2023-04-18T03:52:42.908Z,463.00
2023-04-18T03:53:42.952Z,465.00
2023-04-18T03:54:42.982Z,464.00
2023-04-18T03:55:42.982Z,465.00
2023-04-18T03:56:43.055Z,463.00
2023-04-18T03:57:43.093Z,462.00
2023-04-18T03:58:43.143Z,464.00
2023-04-18T03:59:43.165Z,463.00
2023-04-18T04:00:43.193Z,464.00
2023-04-18T04:01:43.269Z,462.00
2023-04-18T04:02:43.416Z,457.00
2023-04-18T04:03:43.452Z,456.00
2023-04-18T04:04:43.424Z,457.00
2023-04-18T04:05:43.395Z,458.00
2023-04-18T04:06:43.462Z,460.00
2023-04-18T04:07:43.459Z,463.00
2023-04-18T04:08:43.503Z,463.00
2023-04-18T04:09:43.519Z,463.00
2023-04-18T04:10:43.567Z,464.00
2023-04-18T04:11:43.608Z,466.00
2023-04-18T04:12:43.624Z,464.00
2023-04-18T04:13:43.669Z,463.00
2023-04-18T04:14:43.739Z,461.00
2023-04-18T04:15:43.777Z,461.00
2023-04-18T04:16:43.787Z,461.00
2023-04-18T04:17:43.850Z,460.00
2023-04-18T04:18:43.841Z,459.00
2023-04-18T04:19:43.854Z,459.00
2023-04-18T04:20:43.936Z,459.00
2023-04-18T04:21:43.969Z,461.00
2023-04-18T04:22:43.987Z,462.00
2023-04-18T04:23:44.007Z,460.00
2023-04-18T04:24:44.037Z,459.00
2023-04-18T04:25:44.035Z,460.00
2023-04-18T04:26:44.090Z,459.00
2023-04-18T04:27:44.104Z,460.00
2023-04-18T04:28:44.132Z,463.00
2023-04-18T04:29:44.201Z,463.00
2023-04-18T04:30:44.211Z,463.00
2023-04-18T04:31:44.298Z,463.00
2023-04-18T04:32:44.315Z,463.00
2023-04-18T04:33:44.300Z,459.00
2023-04-18T04:34:44.337Z,459.00
2023-04-18T04:35:44.365Z,460.00
2023-04-18T04:36:44.426Z,461.00
2023-04-18T04:37:44.458Z,459.00
2023-04-18T04:38:44.490Z,459.00
2023-04-18T04:39:44.498Z,459.00
2023-04-18T04:40:44.550Z,459.00
2023-04-18T04:41:44.543Z,458.00
2023-04-18T04:42:44.601Z,460.00
2023-04-18T04:43:44.630Z,460.00
2023-04-18T04:44:44.672Z,459.00
2023-04-18T04:45:44.770Z,458.00
2023-04-18T04:46:44.712Z,459.00
2023-04-18T04:47:44.774Z,460.00
2023-04-18T04:48:44.742Z,461.00
2023-04-18T04:49:44.789Z,459.00
2023-04-18T04:50:44.848Z,458.00
2023-04-18T04:51:44.871Z,456.00
2023-04-18T04:52:44.882Z,456.00
2023-04-18T04:53:44.912Z,455.00
2023-04-18T04:54:44.961Z,454.00
2023-04-18T04:55:44.987Z,454.00
2023-04-18T04:56:45.035Z,454.00
2023-04-18T04:57:45.048Z,453.00
2023-04-18T04:58:45.066Z,454.00
2023-04-18T04:59:45.111Z,454.00
2023-04-18T05:00:52.155Z,453.00
2023-04-18T05:01:45.165Z,455.00
2023-04-18T05:02:45.272Z,457.00
2023-04-18T05:03:45.397Z,456.00
2023-04-18T05:04:45.180Z,456.00
2023-04-18T05:05:45.160Z,455.00
2023-04-18T05:06:45.195Z,455.00
2023-04-18T05:07:45.175Z,455.00
2023-04-18T05:08:45.191Z,453.00
2023-04-18T05:09:45.165Z,452.00
2023-04-18T05:10:45.180Z,450.00
2023-04-18T05:11:45.175Z,451.00
2023-04-18T05:12:45.175Z,452.00
2023-04-18T05:13:45.158Z,453.00
2023-04-18T05:14:45.176Z,453.00
2023-04-18T05:15:45.133Z,455.00
2023-04-18T05:16:45.225Z,457.00
2023-04-18T05:17:45.159Z,460.00
2023-04-18T05:18:45.172Z,460.00
2023-04-18T05:19:45.163Z,458.00
2023-04-18T05:20:45.134Z,458.00
2023-04-18T05:21:45.164Z,456.00
2023-04-18T05:22:45.176Z,458.00
2023-04-18T05:23:45.150Z,458.00
2023-04-18T05:24:45.167Z,461.00
2023-04-18T05:25:45.170Z,463.00
2023-04-18T05:26:45.200Z,467.00
2023-04-18T05:27:45.189Z,467.00
2023-04-18T05:28:45.180Z,465.00
2023-04-18T05:29:45.164Z,463.00
2023-04-18T05:30:45.188Z,462.00
2023-04-18T05:31:45.159Z,462.00
2023-04-18T05:32:45.221Z,462.00
2023-04-18T05:33:45.528Z,467.00
2023-04-18T05:34:45.219Z,544.00
2023-04-18T05:35:45.248Z,550.00
2023-04-18T05:36:45.181Z,536.00
2023-04-18T05:37:45.233Z,516.00
2023-04-18T05:38:45.405Z,519.00
2023-04-18T05:39:45.236Z,524.00
2023-04-18T05:40:45.289Z,532.00
2023-04-18T05:41:45.961Z,536.00
2023-04-18T05:42:45.359Z,546.00
2023-04-18T05:43:51.125Z,549.00
2023-04-18T05:44:46.331Z,576.00
2023-04-18T05:45:52.736Z,573.00
2023-04-18T05:46:45.436Z,575.00
2023-04-18T05:47:45.455Z,601.00
2023-04-18T05:48:45.473Z,606.00
2023-04-18T05:49:45.444Z,607.00
2023-04-18T05:50:45.487Z,601.00
2023-04-18T05:51:45.480Z,611.00
2023-04-18T05:52:45.494Z,626.00
2023-04-18T05:53:45.941Z,651.00
2023-04-18T05:54:45.514Z,666.00
2023-04-18T05:55:45.526Z,716.00
2023-04-18T05:56:45.535Z,739.00
2023-04-18T05:57:45.556Z,777.00
2023-04-18T05:58:45.594Z,807.00
2023-04-18T05:59:45.569Z,815.00
2023-04-18T06:00:45.581Z,843.00
2023-04-18T06:01:45.580Z,860.00
2023-04-18T06:02:45.790Z,881.00
2023-04-18T06:03:45.777Z,933.00
2023-04-18T06:04:45.746Z,933.00
2023-04-18T06:05:45.582Z,946.00
2023-04-18T06:06:45.599Z,960.00
2023-04-18T06:07:45.584Z,1039.00
2023-04-18T06:08:45.618Z,1053.00
2023-04-18T06:09:45.703Z,1055.00
2023-04-18T06:10:45.608Z,1053.00
2023-04-18T06:11:45.593Z,1064.00
2023-04-18T06:12:45.612Z,1070.00
2023-04-18T06:13:45.598Z,1081.00
2023-04-18T06:14:45.617Z,1144.00
2023-04-18T06:15:45.641Z,1158.00
2023-04-18T06:16:45.634Z,1166.00
2023-04-18T06:17:45.758Z,1164.00
2023-04-18T06:18:45.654Z,1174.00
2023-04-18T06:19:45.671Z,1186.00
2023-04-18T06:20:45.707Z,1195.00
2023-04-18T06:21:45.683Z,1204.00
2023-04-18T06:22:45.777Z,1218.00
2023-04-18T06:23:46.039Z,1241.00
2023-04-18T06:24:45.842Z,1252.00
2023-04-18T06:25:45.901Z,1269.00
2023-04-18T06:26:45.975Z,1285.00
2023-04-18T06:27:45.961Z,1314.00
2023-04-18T06:28:46.016Z,1325.00
2023-04-18T06:29:46.071Z,1333.00
2023-04-18T06:30:46.097Z,1343.00
2023-04-18T06:31:46.214Z,1346.00
2023-04-18T06:32:46.242Z,1354.00
2023-04-18T06:33:46.528Z,1360.00
2023-04-18T06:34:46.253Z,1391.00
2023-04-18T06:35:46.313Z,1405.00
2023-04-18T06:36:46.362Z,1042.00
2023-04-18T06:37:46.415Z,863.00
2023-04-18T06:38:46.451Z,751.00
2023-04-18T06:39:46.528Z,736.00
2023-04-18T06:40:46.445Z,1204.00
2023-04-18T06:41:46.445Z,1177.00
2023-04-18T06:42:46.490Z,1005.00
2023-04-18T06:43:59.747Z,986.00
2023-04-18T06:44:47.477Z,949.00
2023-04-18T06:45:46.485Z,891.00
2023-04-18T06:46:47.451Z,849.00
2023-04-18T06:47:46.502Z,824.00
2023-04-18T06:48:46.456Z,818.00
2023-04-18T06:49:46.437Z,812.00
2023-04-18T06:50:46.990Z,804.00
2023-04-18T06:51:46.473Z,793.00
2023-04-18T06:52:46.439Z,797.00
2023-04-18T06:53:46.488Z,792.00
2023-04-18T06:54:46.456Z,784.00
2023-04-18T06:55:46.462Z,774.00
2023-04-18T06:56:46.479Z,760.00
2023-04-18T06:57:46.536Z,747.00
2023-04-18T06:58:46.962Z,749.00
2023-04-18T06:59:46.573Z,736.00
2023-04-18T07:00:46.658Z,722.00
2023-04-18T07:01:46.770Z,706.00
2023-04-18T07:02:46.910Z,704.00
2023-04-18T07:03:47.150Z,778.00
2023-04-18T07:04:47.169Z,801.00
2023-04-18T07:05:46.981Z,796.00
2023-04-18T07:06:47.042Z,809.00
2023-04-18T07:07:47.091Z,804.00
2023-04-18T07:08:47.503Z,837.00
2023-04-18T07:09:47.183Z,885.00
2023-04-18T07:10:47.246Z,885.00
2023-04-18T07:11:47.282Z,896.00
2023-04-18T07:12:47.339Z,912.00
2023-04-18T07:13:47.398Z,921.00
2023-04-18T07:14:47.405Z,931.00
2023-04-18T07:15:47.477Z,937.00
2023-04-18T07:16:47.593Z,945.00
2023-04-18T07:17:47.611Z,948.00
2023-04-18T07:18:47.611Z,938.00
2023-04-18T07:19:47.678Z,946.00
2023-04-18T07:20:47.709Z,934.00
2023-04-18T07:21:47.734Z,924.00
2023-04-18T07:22:47.760Z,927.00
2023-04-18T07:23:47.803Z,969.00
2023-04-18T07:24:47.889Z,995.00
2023-04-18T07:25:48.493Z,1003.00
2023-04-18T07:26:47.952Z,1012.00
2023-04-18T07:27:48.141Z,1015.00
2023-04-18T07:28:48.015Z,1012.00
2023-04-18T07:29:48.486Z,881.00
2023-04-18T07:30:48.107Z,800.00
2023-04-18T07:31:48.175Z,776.00
2023-04-18T07:32:48.193Z,773.00
2023-04-18T07:33:48.259Z,773.00
2023-04-18T07:34:48.293Z,776.00
2023-04-18T07:35:48.426Z,850.00
2023-04-18T07:36:48.394Z,857.00
2023-04-18T07:37:48.439Z,871.00
2023-04-18T07:38:48.472Z,805.00
2023-04-18T07:39:48.981Z,784.00
2023-04-18T07:40:48.587Z,741.00
2023-04-18T07:41:48.632Z,734.00
2023-04-18T07:42:48.675Z,744.00
2023-04-18T07:43:48.698Z,741.00
2023-04-18T07:44:48.801Z,745.00
2023-04-18T07:45:48.888Z,722.00
2023-04-18T07:46:48.984Z,735.00
2023-04-18T07:47:49.044Z,754.00
2023-04-18T07:48:49.052Z,794.00
2023-04-18T07:49:49.121Z,795.00
2023-04-18T07:50:49.199Z,897.00
2023-04-18T07:51:49.260Z,925.00
2023-04-18T07:52:49.285Z,922.00
2023-04-18T07:53:49.368Z,985.00
2023-04-18T07:54:49.335Z,994.00
2023-04-18T07:55:49.402Z,1011.00
2023-04-18T07:56:49.433Z,1054.00
2023-04-18T07:57:49.495Z,1052.00
2023-04-18T07:58:49.445Z,1059.00
2023-04-18T07:59:49.515Z,1075.00
2023-04-18T08:00:49.527Z,1088.00
2023-04-18T08:01:49.510Z,1106.00
2023-04-18T08:02:49.616Z,1121.00
2023-04-18T08:03:49.589Z,1109.00
2023-04-18T08:04:49.741Z,1094.00
2023-04-18T08:05:49.553Z,1089.00
2023-04-18T08:06:49.504Z,1103.00
2023-04-18T08:07:49.509Z,1123.00
2023-04-18T08:08:49.530Z,1136.00
2023-04-18T08:09:49.488Z,1207.00
2023-04-18T08:10:49.528Z,1206.00
2023-04-18T08:11:49.589Z,1209.00
2023-04-18T08:12:49.616Z,1219.00
2023-04-18T08:13:49.675Z,1248.00
2023-04-18T08:14:49.669Z,1298.00
2023-04-18T08:15:49.867Z,1292.00
2023-04-18T08:16:49.753Z,1303.00
2023-04-18T08:17:49.863Z,1319.00
2023-04-18T08:18:49.873Z,1342.00
2023-04-18T08:19:50.564Z,1353.00
2023-04-18T08:20:49.985Z,1358.00
2023-04-18T08:21:49.992Z,1371.00
2023-04-18T08:23:05.246Z,1386.00
2023-04-18T08:23:51.038Z,1390.00
2023-04-18T08:25:03.829Z,1398.00
2023-04-18T08:25:51.039Z,1460.00
2023-04-18T08:26:50.015Z,1380.00
2023-04-18T08:27:49.966Z,1346.00
2023-04-18T08:28:49.988Z,1342.00
2023-04-18T08:29:50.020Z,1113.00
2023-04-18T08:30:49.945Z,1135.00
2023-04-18T08:31:50.077Z,951.00
2023-04-18T08:32:50.020Z,948.00
2023-04-18T08:33:49.952Z,934.00
2023-04-18T08:34:50.009Z,1026.00
2023-04-18T08:35:49.927Z,985.00
2023-04-18T08:36:49.886Z,908.00
2023-04-18T08:37:49.892Z,837.00
2023-04-18T08:38:49.906Z,818.00
2023-04-18T08:39:50.015Z,805.00
2023-04-18T08:40:49.959Z,781.00
2023-04-18T08:41:50.034Z,728.00
2023-04-18T08:42:50.053Z,713.00
2023-04-18T08:43:50.114Z,709.00
2023-04-18T08:44:50.517Z,688.00
2023-04-18T08:45:50.195Z,678.00
2023-04-18T08:46:50.267Z,673.00
2023-04-18T08:47:50.364Z,672.00
2023-04-18T08:48:50.374Z,658.00
2023-04-18T08:49:50.552Z,656.00
2023-04-18T08:50:50.493Z,660.00
2023-04-18T08:51:50.591Z,841.00
2023-04-18T08:52:50.579Z,877.00
2023-04-18T08:53:50.652Z,701.00
2023-04-18T08:54:50.735Z,692.00
2023-04-18T08:55:50.795Z,705.00
2023-04-18T08:56:50.858Z,678.00
2023-04-18T08:57:50.950Z,673.00
2023-04-18T08:58:51.073Z,669.00
2023-04-18T08:59:51.515Z,658.00
2023-04-18T09:00:51.136Z,716.00
2023-04-18T09:01:51.172Z,727.00
2023-04-18T09:02:51.248Z,647.00
2023-04-18T09:03:51.236Z,652.00
2023-04-18T09:04:51.531Z,622.00
2023-04-18T09:05:51.347Z,605.00
2023-04-18T09:06:51.381Z,651.00
2023-04-18T09:07:51.461Z,665.00
2023-04-18T09:08:51.493Z,743.00
2023-04-18T09:09:52.048Z,732.00
2023-04-18T09:10:51.643Z,664.00
2023-04-18T09:11:51.692Z,613.00
2023-04-18T09:12:51.770Z,590.00
2023-04-18T09:13:51.850Z,596.00
2023-04-18T09:14:51.880Z,685.00
2023-04-18T09:15:51.930Z,647.00
2023-04-18T09:16:52.043Z,635.00
2023-04-18T09:17:52.098Z,672.00
2023-04-18T09:18:52.153Z,674.00
2023-04-18T09:19:52.581Z,670.00
2023-04-18T09:20:52.275Z,630.00
2023-04-18T09:21:52.335Z,628.00
2023-04-18T09:22:52.503Z,640.00
2023-04-18T09:23:53.020Z,633.00
2023-04-18T09:24:53.052Z,628.00
2023-04-18T09:25:52.596Z,633.00
2023-04-18T09:26:52.617Z,632.00
2023-04-18T09:27:52.719Z,625.00
2023-04-18T09:28:53.817Z,621.00
2023-04-18T09:29:53.579Z,587.00
2023-04-18T09:30:52.986Z,591.00
2023-04-18T09:31:52.924Z,578.00
2023-04-18T09:32:53.057Z,583.00
2023-04-18T09:33:54.052Z,582.00
2023-04-18T09:34:53.578Z,576.00
2023-04-18T09:35:53.232Z,570.00
2023-04-18T09:36:53.290Z,576.00
2023-04-18T09:37:53.304Z,574.00
2023-04-18T09:38:56.240Z,568.00
2023-04-18T09:39:53.392Z,570.00
2023-04-18T09:40:53.571Z,629.00
2023-04-18T09:41:53.559Z,651.00
2023-04-18T09:42:53.413Z,566.00
2023-04-18T09:43:53.448Z,726.00
2023-04-18T09:44:55.138Z,769.00
2023-04-18T09:45:53.472Z,762.00
2023-04-18T09:46:53.403Z,762.00
2023-04-18T09:47:53.515Z,740.00
2023-04-18T09:48:53.443Z,742.00
2023-04-18T09:49:53.498Z,783.00
2023-04-18T09:50:53.575Z,783.00
2023-04-18T09:51:53.494Z,771.00
2023-04-18T09:52:53.485Z,697.00
2023-04-18T09:53:53.454Z,726.00
2023-04-18T09:54:53.503Z,739.00
2023-04-18T09:55:54.961Z,781.00
2023-04-18T09:56:53.475Z,777.00
2023-04-18T09:57:53.478Z,780.00
2023-04-18T09:58:53.479Z,778.00
2023-04-18T09:59:53.454Z,768.00
2023-04-18T10:00:53.582Z,769.00
2023-04-18T10:01:53.534Z,755.00
2023-04-18T10:02:53.639Z,757.00
2023-04-18T10:03:53.533Z,748.00
2023-04-18T10:04:53.588Z,746.00
2023-04-18T10:05:53.947Z,744.00
2023-04-18T10:06:53.486Z,753.00
2023-04-18T10:07:53.514Z,754.00
2023-04-18T10:08:53.506Z,757.00
2023-04-18T10:09:53.484Z,755.00
2023-04-18T10:10:53.502Z,756.00
2023-04-18T10:11:53.509Z,754.00
2023-04-18T10:12:53.490Z,750.00
2023-04-18T10:13:53.587Z,746.00
2023-04-18T10:14:53.532Z,746.00
2023-04-18T10:15:53.556Z,750.00
2023-04-18T10:16:53.463Z,754.00
2023-04-18T10:18:03.517Z,755.00
2023-04-18T10:18:54.485Z,758.00
2023-04-18T10:19:53.478Z,767.00
2023-04-18T10:20:53.565Z,774.00
2023-04-18T10:21:53.482Z,784.00
2023-04-18T10:22:53.468Z,784.00
2023-04-18T10:23:53.465Z,788.00
2023-04-18T10:24:53.835Z,783.00
2023-04-18T10:25:53.574Z,790.00
2023-04-18T10:26:53.485Z,790.00
2023-04-18T10:27:53.540Z,797.00
2023-04-18T10:28:53.782Z,800.00
2023-04-18T10:29:53.509Z,866.00
2023-04-18T10:30:53.599Z,824.00
2023-04-18T10:31:53.593Z,734.00
2023-04-18T10:32:53.588Z,756.00
2023-04-18T10:34:03.804Z,842.00
2023-04-18T10:34:54.628Z,844.00
2023-04-18T10:35:54.103Z,846.00
2023-04-18T10:36:53.591Z,816.00
2023-04-18T10:37:53.588Z,822.00
2023-04-18T10:38:53.640Z,833.00
2023-04-18T10:39:53.601Z,838.00
2023-04-18T10:40:54.139Z,851.00
2023-04-18T10:41:53.579Z,890.00
2023-04-18T10:42:53.664Z,895.00
2023-04-18T10:43:53.597Z,799.00
2023-04-18T10:44:53.598Z,793.00
2023-04-18T10:45:53.658Z,811.00
2023-04-18T10:46:53.706Z,729.00
2023-04-18T10:47:53.652Z,766.00
2023-04-18T10:48:53.610Z,769.00
2023-04-18T10:49:53.638Z,763.00
2023-04-18T10:50:53.784Z,736.00
2023-04-18T10:51:53.836Z,720.00
2023-04-18T10:52:53.824Z,714.00
2023-04-18T10:53:53.913Z,710.00
2023-04-18T10:54:53.972Z,709.00
2023-04-18T10:55:54.027Z,683.00
2023-04-18T10:56:54.088Z,639.00
2023-04-18T10:57:54.166Z,649.00
2023-04-18T10:58:54.225Z,604.00
2023-04-18T10:59:54.257Z,601.00
2023-04-18T11:00:54.366Z,586.00
2023-04-18T11:01:54.452Z,590.00
2023-04-18T11:02:54.558Z,654.00
2023-04-18T11:03:54.541Z,638.00
2023-04-18T11:04:54.555Z,668.00
2023-04-18T11:05:54.666Z,665.00
2023-04-18T11:06:54.650Z,666.00
2023-04-18T11:07:54.692Z,661.00
2023-04-18T11:08:54.731Z,606.00
2023-04-18T11:09:54.796Z,611.00
2023-04-18T11:10:54.798Z,597.00
2023-04-18T11:11:54.844Z,598.00
2023-04-18T11:12:54.861Z,605.00
2023-04-18T11:13:54.916Z,601.00
2023-04-18T11:14:54.889Z,608.00
2023-04-18T11:15:55.152Z,609.00
2023-04-18T11:16:55.087Z,631.00
2023-04-18T11:17:55.071Z,646.00
2023-04-18T11:18:55.069Z,652.00
2023-04-18T11:19:55.064Z,642.00
2023-04-18T11:20:55.114Z,643.00
2023-04-18T11:21:55.167Z,647.00
2023-04-18T11:22:55.202Z,648.00
2023-04-18T11:23:55.299Z,650.00
2023-04-18T11:24:55.353Z,670.00
2023-04-18T11:25:55.385Z,719.00
2023-04-18T11:26:55.787Z,758.00
2023-04-18T11:27:55.485Z,776.00
2023-04-18T11:28:55.564Z,820.00
2023-04-18T11:29:55.603Z,847.00
2023-04-18T11:30:55.602Z,946.00
2023-04-18T11:31:58.640Z,979.00
2023-04-18T11:32:55.717Z,998.00
2023-04-18T11:33:55.613Z,1018.00
2023-04-18T11:34:55.636Z,1029.00
2023-04-18T11:35:55.642Z,1032.00
2023-04-18T11:36:55.588Z,1036.00
2023-04-18T11:37:55.628Z,1034.00
2023-04-18T11:38:56.117Z,1032.00
2023-04-18T11:39:55.549Z,1020.00
2023-04-18T11:40:55.546Z,1001.00
2023-04-18T11:41:55.591Z,965.00
2023-04-18T11:42:55.627Z,951.00
2023-04-18T11:43:55.563Z,951.00
2023-04-18T11:44:55.546Z,945.00
2023-04-18T11:45:55.566Z,942.00
2023-04-18T11:46:55.523Z,940.00
2023-04-18T11:47:55.628Z,932.00
2023-04-18T11:48:55.528Z,931.00
2023-04-18T11:49:57.092Z,925.00
2023-04-18T11:50:55.485Z,916.00
2023-04-18T11:51:55.503Z,907.00
2023-04-18T11:52:55.501Z,896.00
2023-04-18T11:53:55.504Z,887.00
2023-04-18T11:54:55.554Z,888.00
2023-04-18T11:55:55.476Z,888.00
2023-04-18T11:56:55.473Z,880.00
2023-04-18T11:57:55.491Z,868.00
2023-04-18T11:58:55.454Z,858.00
2023-04-18T11:59:55.438Z,858.00
2023-04-18T12:00:55.437Z,857.00
2023-04-18T12:01:58.605Z,855.00
2023-04-18T12:02:55.503Z,849.00
2023-04-18T12:03:55.592Z,845.00
2023-04-18T12:04:55.912Z,843.00
2023-04-18T12:05:55.446Z,842.00
2023-04-18T12:06:55.402Z,836.00
2023-04-18T12:07:55.397Z,808.00
2023-04-18T12:08:55.404Z,794.00
2023-04-18T12:09:55.411Z,788.00
2023-04-18T12:10:55.373Z,784.00
2023-04-18T12:11:55.365Z,778.00
2023-04-18T12:12:55.343Z,777.00
2023-04-18T12:13:55.369Z,778.00
2023-04-18T12:14:55.360Z,778.00
2023-04-18T12:15:55.360Z,778.00
2023-04-18T12:16:55.365Z,774.00
2023-04-18T12:17:55.370Z,769.00
2023-04-18T12:18:55.322Z,762.00
2023-04-18T12:19:55.322Z,761.00
2023-04-18T12:20:55.304Z,754.00
2023-04-18T12:21:55.310Z,741.00
2023-04-18T12:22:55.366Z,741.00
2023-04-18T12:23:55.316Z,730.00
2023-04-18T12:24:55.315Z,730.00
2023-04-18T12:25:55.323Z,730.00